sensor_id;sensor_type;location;lat;lon;timestamp;pressure;altitude;pressure_sealevel;temperature;humidity
72685;BME280;61365;52.162;4.500;2023-09-07T00:00:53;101929.22;;;22.25;69.40
72685;BME280;61365;52.162;4.500;2023-09-07T00:03:19;101929.78;;;22.34;68.92
72685;BME280;61365;52.162;4.500;2023-09-07T00:05:45;101926.44;;;22.28;69.43
72685;BME280;61365;52.162;4.500;2023-09-07T00:08:11;101924.69;;;22.27;69.36
72685;BME280;61365;52.162;4.500;2023-09-07T00:10:37;101924.00;;;22.20;69.69
72685;BME280;61365;52.162;4.500;2023-09-07T00:13:03;101916.97;;;22.17;69.71
72685;BME280;61365;52.162;4.500;2023-09-07T00:15:30;101911.69;;;22.16;69.97
72685;BME280;61365;52.162;4.500;2023-09-07T00:18:02;101915.97;;;22.20;69.81
72685;BME280;61365;52.162;4.500;2023-09-07T00:20:28;101913.28;;;22.20;69.53
72685;BME280;61365;52.162;4.500;2023-09-07T00:22:54;101916.59;;;22.28;69.46
72685;BME280;61365;52.162;4.500;2023-09-07T00:25:21;101914.44;;;22.13;70.41
72685;BME280;61365;52.162;4.500;2023-09-07T00:27:47;101915.97;;;21.93;70.49
72685;BME280;61365;52.162;4.500;2023-09-07T00:30:13;101911.88;;;21.81;71.18
72685;BME280;61365;52.162;4.500;2023-09-07T00:32:40;101916.59;;;21.73;71.97
72685;BME280;61365;52.162;4.500;2023-09-07T00:35:06;101915.34;;;21.83;71.50
72685;BME280;61365;52.162;4.500;2023-09-07T00:37:33;101924.94;;;21.62;72.24
72685;BME280;61365;52.162;4.500;2023-09-07T00:39:59;101922.31;;;21.59;72.57
72685;BME280;61365;52.162;4.500;2023-09-07T00:42:25;101924.25;;;21.54;72.87
72685;BME280;61365;52.162;4.500;2023-09-07T00:44:51;101920.88;;;21.47;72.95
72685;BME280;61365;52.162;4.500;2023-09-07T00:47:18;101915.72;;;21.41;73.18
72685;BME280;61365;52.162;4.500;2023-09-07T00:49:44;101914.94;;;21.37;73.26
72685;BME280;61365;52.162;4.500;2023-09-07T00:52:11;101915.84;;;21.36;73.11
72685;BME280;61365;52.162;4.500;2023-09-07T00:54:37;101908.78;;;21.34;73.30
72685;BME280;61365;52.162;4.500;2023-09-07T00:57:06;101914.28;;;21.29;73.14
72685;BME280;61365;52.162;4.500;2023-09-07T00:59:33;101907.16;;;21.29;73.30
72685;BME280;61365;52.162;4.500;2023-09-07T01:02:00;101900.78;;;21.34;72.81
72685;BME280;61365;52.162;4.500;2023-09-07T01:04:26;101900.00;;;21.30;73.09
72685;BME280;61365;52.162;4.500;2023-09-07T01:07:35;101899.84;;;21.36;72.62
72685;BME280;61365;52.162;4.500;2023-09-07T01:09:51;101888.25;;;21.37;72.48
72685;BME280;61365;52.162;4.500;2023-09-07T01:12:21;101891.31;;;21.23;73.13
72685;BME280;61365;52.162;4.500;2023-09-07T01:14:48;101889.28;;;21.02;73.89
72685;BME280;61365;52.162;4.500;2023-09-07T01:17:14;101892.81;;;21.02;74.12
72685;BME280;61365;52.162;4.500;2023-09-07T01:19:40;101897.28;;;21.02;73.94
72685;BME280;61365;52.162;4.500;2023-09-07T01:22:09;101896.53;;;20.96;74.33
72685;BME280;61365;52.162;4.500;2023-09-07T01:24:37;101891.94;;;21.02;73.99
72685;BME280;61365;52.162;4.500;2023-09-07T01:27:04;101895.59;;;20.97;73.97
72685;BME280;61365;52.162;4.500;2023-09-07T01:29:31;101895.53;;;21.00;74.13
72685;BME280;61365;52.162;4.500;2023-09-07T01:31:57;101894.53;;;21.05;73.44
72685;BME280;61365;52.162;4.500;2023-09-07T01:34:24;101892.03;;;20.97;73.79
72685;BME280;61365;52.162;4.500;2023-09-07T01:36:50;101892.97;;;20.96;73.95
72685;BME280;61365;52.162;4.500;2023-09-07T01:39:16;101884.19;;;20.92;73.91
72685;BME280;61365;52.162;4.500;2023-09-07T01:41:43;101880.53;;;20.95;73.79
72685;BME280;61365;52.162;4.500;2023-09-07T01:44:09;101886.75;;;20.95;73.68
72685;BME280;61365;52.162;4.500;2023-09-07T01:46:35;101895.63;;;20.96;73.55
72685;BME280;61365;52.162;4.500;2023-09-07T01:49:04;101896.53;;;20.95;73.73
72685;BME280;61365;52.162;4.500;2023-09-07T01:51:30;101885.94;;;20.93;73.45
72685;BME280;61365;52.162;4.500;2023-09-07T01:53:56;101902.25;;;20.82;73.61
72685;BME280;61365;52.162;4.500;2023-09-07T01:56:22;101890.28;;;20.96;73.23
72685;BME280;61365;52.162;4.500;2023-09-07T01:58:48;101886.72;;;20.97;73.11
72685;BME280;61365;52.162;4.500;2023-09-07T02:01:24;101886.25;;;20.81;73.60
72685;BME280;61365;52.162;4.500;2023-09-07T02:03:51;101879.09;;;20.83;73.55
72685;BME280;61365;52.162;4.500;2023-09-07T02:06:18;101881.72;;;20.84;73.48
72685;BME280;61365;52.162;4.500;2023-09-07T02:08:44;101887.22;;;20.78;73.60
72685;BME280;61365;52.162;4.500;2023-09-07T02:11:11;101888.97;;;20.79;73.98
72685;BME280;61365;52.162;4.500;2023-09-07T02:13:37;101892.75;;;20.69;74.22
72685;BME280;61365;52.162;4.500;2023-09-07T02:16:03;101889.94;;;20.77;73.82
72685;BME280;61365;52.162;4.500;2023-09-07T02:18:35;101889.09;;;20.73;73.99
72685;BME280;61365;52.162;4.500;2023-09-07T02:21:04;101890.94;;;20.71;74.16
72685;BME280;61365;52.162;4.500;2023-09-07T02:23:33;101888.69;;;20.55;74.87
72685;BME280;61365;52.162;4.500;2023-09-07T02:26:01;101888.81;;;20.51;75.24
72685;BME280;61365;52.162;4.500;2023-09-07T02:28:27;101884.69;;;20.39;75.54
72685;BME280;61365;52.162;4.500;2023-09-07T02:30:53;101883.91;;;20.34;75.94
72685;BME280;61365;52.162;4.500;2023-09-07T02:33:20;101881.28;;;20.32;75.79
72685;BME280;61365;52.162;4.500;2023-09-07T02:35:49;101884.81;;;20.33;75.86
72685;BME280;61365;52.162;4.500;2023-09-07T02:38:15;101883.28;;;20.24;76.22
72685;BME280;61365;52.162;4.500;2023-09-07T02:40:42;101882.50;;;20.19;76.54
72685;BME280;61365;52.162;4.500;2023-09-07T02:43:09;101885.16;;;20.19;76.27
72685;BME280;61365;52.162;4.500;2023-09-07T02:45:36;101882.81;;;20.43;75.47
72685;BME280;61365;52.162;4.500;2023-09-07T02:48:02;101891.97;;;20.31;75.85
72685;BME280;61365;52.162;4.500;2023-09-07T02:50:29;101886.66;;;20.31;76.32
72685;BME280;61365;52.162;4.500;2023-09-07T02:52:57;101885.88;;;20.27;76.08
72685;BME280;61365;52.162;4.500;2023-09-07T02:55:23;101887.84;;;20.19;76.57
72685;BME280;61365;52.162;4.500;2023-09-07T02:57:50;101898.53;;;20.17;76.74
72685;BME280;61365;52.162;4.500;2023-09-07T03:00:16;101893.38;;;20.09;76.89
72685;BME280;61365;52.162;4.500;2023-09-07T03:02:43;101894.16;;;20.15;76.88
72685;BME280;61365;52.162;4.500;2023-09-07T03:05:09;101897.72;;;20.15;76.67
72685;BME280;61365;52.162;4.500;2023-09-07T03:07:36;101891.81;;;20.01;77.27
72685;BME280;61365;52.162;4.500;2023-09-07T03:10:02;101895.13;;;20.10;76.91
72685;BME280;61365;52.162;4.500;2023-09-07T03:12:29;101898.69;;;20.11;76.98
72685;BME280;61365;52.162;4.500;2023-09-07T03:14:55;101895.31;;;20.04;77.12
72685;BME280;61365;52.162;4.500;2023-09-07T03:17:22;101899.47;;;20.15;76.45
72685;BME280;61365;52.162;4.500;2023-09-07T03:19:48;101898.44;;;20.22;76.53
72685;BME280;61365;52.162;4.500;2023-09-07T03:22:14;101898.84;;;20.05;76.63
72685;BME280;61365;52.162;4.500;2023-09-07T03:24:41;101897.34;;;19.93;77.54
72685;BME280;61365;52.162;4.500;2023-09-07T03:27:07;101890.25;;;19.92;77.77
72685;BME280;61365;52.162;4.500;2023-09-07T03:29:34;101890.91;;;20.02;76.80
72685;BME280;61365;52.162;4.500;2023-09-07T03:32:01;101882.38;;;19.86;77.75
72685;BME280;61365;52.162;4.500;2023-09-07T03:34:28;101879.66;;;19.90;77.74
72685;BME280;61365;52.162;4.500;2023-09-07T03:36:54;101890.53;;;19.78;78.14
72685;BME280;61365;52.162;4.500;2023-09-07T03:39:20;101880.78;;;19.78;78.22
72685;BME280;61365;52.162;4.500;2023-09-07T03:41:49;101886.91;;;19.80;78.19
72685;BME280;61365;52.162;4.500;2023-09-07T03:44:15;101889.28;;;19.96;76.83
72685;BME280;61365;52.162;4.500;2023-09-07T03:46:41;101889.44;;;19.87;77.21
72685;BME280;61365;52.162;4.500;2023-09-07T03:49:07;101883.31;;;19.83;77.13
72685;BME280;61365;52.162;4.500;2023-09-07T03:51:33;101886.72;;;19.91;77.39
72685;BME280;61365;52.162;4.500;2023-09-07T03:53:59;101885.81;;;19.92;76.84
72685;BME280;61365;52.162;4.500;2023-09-07T03:56:26;101894.91;;;19.80;76.88
72685;BME280;61365;52.162;4.500;2023-09-07T03:58:52;101886.78;;;19.87;76.57
72685;BME280;61365;52.162;4.500;2023-09-07T04:01:18;101892.06;;;19.90;76.60
72685;BME280;61365;52.162;4.500;2023-09-07T04:03:44;101894.78;;;19.88;76.91
72685;BME280;61365;52.162;4.500;2023-09-07T04:06:10;101891.31;;;19.83;77.19
72685;BME280;61365;52.162;4.500;2023-09-07T04:08:37;101894.78;;;19.88;76.97
72685;BME280;61365;52.162;4.500;2023-09-07T04:11:03;101889.81;;;19.71;77.84
72685;BME280;61365;52.162;4.500;2023-09-07T04:13:31;101893.44;;;19.67;77.79
72685;BME280;61365;52.162;4.500;2023-09-07T04:15:57;101892.50;;;19.70;77.16
72685;BME280;61365;52.162;4.500;2023-09-07T04:18:23;101903.00;;;19.76;77.21
72685;BME280;61365;52.162;4.500;2023-09-07T04:20:50;101895.84;;;19.79;76.74
72685;BME280;61365;52.162;4.500;2023-09-07T04:23:16;101893.44;;;19.67;77.31
72685;BME280;61365;52.162;4.500;2023-09-07T04:25:42;101893.44;;;19.67;77.47
72685;BME280;61365;52.162;4.500;2023-09-07T04:28:08;101897.16;;;19.60;77.80
72685;BME280;61365;52.162;4.500;2023-09-07T04:30:38;101901.53;;;19.62;77.54
72685;BME280;61365;52.162;4.500;2023-09-07T04:33:05;101902.41;;;19.63;77.86
72685;BME280;61365;52.162;4.500;2023-09-07T04:35:32;101899.63;;;19.68;77.25
72685;BME280;61365;52.162;4.500;2023-09-07T04:37:58;101902.53;;;19.57;77.94
72685;BME280;61365;52.162;4.500;2023-09-07T04:40:25;101904.53;;;19.47;78.73
72685;BME280;61365;52.162;4.500;2023-09-07T04:42:51;101905.31;;;19.52;78.21
72685;BME280;61365;52.162;4.500;2023-09-07T04:45:17;101905.44;;;19.46;78.06
72685;BME280;61365;52.162;4.500;2023-09-07T04:47:43;101901.00;;;19.45;78.14
72685;BME280;61365;52.162;4.500;2023-09-07T04:50:09;101910.06;;;19.38;78.57
72685;BME280;61365;52.162;4.500;2023-09-07T04:52:36;101913.63;;;19.37;78.44
72685;BME280;61365;52.162;4.500;2023-09-07T04:55:02;101909.38;;;19.28;78.83
72685;BME280;61365;52.162;4.500;2023-09-07T04:57:30;101914.66;;;19.29;78.66
72685;BME280;61365;52.162;4.500;2023-09-07T04:59:56;101913.75;;;19.30;78.58
72685;BME280;61365;52.162;4.500;2023-09-07T05:02:22;101919.13;;;19.29;78.69
72685;BME280;61365;52.162;4.500;2023-09-07T05:04:48;101918.28;;;19.27;78.95
72685;BME280;61365;52.162;4.500;2023-09-07T05:07:16;101918.31;;;19.24;79.14
72685;BME280;61365;52.162;4.500;2023-09-07T05:09:42;101922.75;;;19.23;79.32
72685;BME280;61365;52.162;4.500;2023-09-07T05:12:08;101925.31;;;19.29;78.80
72685;BME280;61365;52.162;4.500;2023-09-07T05:14:34;101926.78;;;19.44;78.63
72685;BME280;61365;52.162;4.500;2023-09-07T05:17:00;101929.66;;;19.33;78.43
72685;BME280;61365;52.162;4.500;2023-09-07T05:19:27;101936.19;;;19.61;77.56
72685;BME280;61365;52.162;4.500;2023-09-07T05:21:53;101935.09;;;20.10;76.27
72685;BME280;61365;52.162;4.500;2023-09-07T05:24:19;101926.03;;;20.55;73.84
72685;BME280;61365;52.162;4.500;2023-09-07T05:26:45;101933.03;;;20.94;71.10
72685;BME280;61365;52.162;4.500;2023-09-07T05:29:12;101927.25;;;21.11;70.61
72685;BME280;61365;52.162;4.500;2023-09-07T05:31:38;101932.13;;;21.27;70.16
72685;BME280;61365;52.162;4.500;2023-09-07T05:34:04;101926.63;;;21.02;70.67
72685;BME280;61365;52.162;4.500;2023-09-07T05:36:30;101926.63;;;21.33;70.30
72685;BME280;61365;52.162;4.500;2023-09-07T05:38:57;101926.03;;;21.83;67.76
72685;BME280;61365;52.162;4.500;2023-09-07T05:41:23;101930.84;;;22.00;66.99
72685;BME280;61365;52.162;4.500;2023-09-07T05:43:52;101932.22;;;22.14;68.01
72685;BME280;61365;52.162;4.500;2023-09-07T05:46:18;101928.41;;;22.76;64.91
72685;BME280;61365;52.162;4.500;2023-09-07T05:48:44;101936.69;;;22.69;64.56
72685;BME280;61365;52.162;4.500;2023-09-07T05:51:10;101931.13;;;22.48;65.58
72685;BME280;61365;52.162;4.500;2023-09-07T05:53:36;101930.72;;;22.60;64.79
72685;BME280;61365;52.162;4.500;2023-09-07T05:56:02;101935.22;;;22.31;65.76
72685;BME280;61365;52.162;4.500;2023-09-07T05:58:29;101929.78;;;22.87;63.38
72685;BME280;61365;52.162;4.500;2023-09-07T06:00:55;101943.66;;;22.73;63.96
72685;BME280;61365;52.162;4.500;2023-09-07T06:03:21;101937.72;;;22.90;63.77
72685;BME280;61365;52.162;4.500;2023-09-07T06:05:47;101939.94;;;23.29;62.10
72685;BME280;61365;52.162;4.500;2023-09-07T06:08:13;101940.56;;;23.60;60.52
72685;BME280;61365;52.162;4.500;2023-09-07T06:10:39;101946.09;;;23.55;60.16
72685;BME280;61365;52.162;4.500;2023-09-07T06:13:06;101943.34;;;22.82;63.58
72685;BME280;61365;52.162;4.500;2023-09-07T06:15:32;101949.34;;;22.63;63.69
72685;BME280;61365;52.162;4.500;2023-09-07T06:17:58;101952.25;;;23.08;62.80
72685;BME280;61365;52.162;4.500;2023-09-07T06:20:24;101946.91;;;23.08;62.63
72685;BME280;61365;52.162;4.500;2023-09-07T06:22:51;101960.22;;;23.09;62.50
72685;BME280;61365;52.162;4.500;2023-09-07T06:25:17;101962.84;;;23.11;62.81
72685;BME280;61365;52.162;4.500;2023-09-07T06:27:43;101953.69;;;23.18;62.31
72685;BME280;61365;52.162;4.500;2023-09-07T06:30:09;101949.19;;;23.44;61.40
72685;BME280;61365;52.162;4.500;2023-09-07T06:32:36;101954.81;;;23.60;60.71
72685;BME280;61365;52.162;4.500;2023-09-07T06:35:02;101953.25;;;23.54;61.02
72685;BME280;61365;52.162;4.500;2023-09-07T06:37:29;101957.38;;;23.14;61.83
72685;BME280;61365;52.162;4.500;2023-09-07T06:39:55;101942.25;;;23.38;61.85
72685;BME280;61365;52.162;4.500;2023-09-07T06:42:21;101954.13;;;23.79;60.08
72685;BME280;61365;52.162;4.500;2023-09-07T06:44:47;101961.34;;;24.01;59.12
72685;BME280;61365;52.162;4.500;2023-09-07T06:47:13;101952.38;;;23.78;60.11
72685;BME280;61365;52.162;4.500;2023-09-07T06:49:40;101955.19;;;24.21;58.83
72685;BME280;61365;52.162;4.500;2023-09-07T06:52:06;101944.19;;;24.27;58.01
72685;BME280;61365;52.162;4.500;2023-09-07T06:54:32;101958.72;;;24.43;57.26
72685;BME280;61365;52.162;4.500;2023-09-07T06:56:58;101948.97;;;24.84;55.86
72685;BME280;61365;52.162;4.500;2023-09-07T06:59:24;101943.78;;;24.58;56.98
72685;BME280;61365;52.162;4.500;2023-09-07T07:01:50;101947.41;;;24.57;56.91
72685;BME280;61365;52.162;4.500;2023-09-07T07:04:17;101952.06;;;24.74;56.43
72685;BME280;61365;52.162;4.500;2023-09-07T07:06:43;101949.53;;;24.70;56.30
72685;BME280;61365;52.162;4.500;2023-09-07T07:09:09;101954.06;;;24.26;57.94
72685;BME280;61365;52.162;4.500;2023-09-07T07:11:36;101949.00;;;24.62;56.36
72685;BME280;61365;52.162;4.500;2023-09-07T07:14:04;101948.13;;;24.83;56.23
72685;BME280;61365;52.162;4.500;2023-09-07T07:16:31;101954.31;;;24.63;55.61
72685;BME280;61365;52.162;4.500;2023-09-07T07:18:57;101953.13;;;24.70;57.24
72685;BME280;61365;52.162;4.500;2023-09-07T07:21:23;101946.19;;;25.27;54.47
72685;BME280;61365;52.162;4.500;2023-09-07T07:23:50;101949.53;;;25.32;54.04
72685;BME280;61365;52.162;4.500;2023-09-07T07:26:16;101946.22;;;25.06;54.69
72685;BME280;61365;52.162;4.500;2023-09-07T07:28:43;101937.91;;;25.31;54.32
72685;BME280;61365;52.162;4.500;2023-09-07T07:31:09;101945.31;;;25.47;53.96
72685;BME280;61365;52.162;4.500;2023-09-07T07:33:35;101943.22;;;25.33;54.17
72685;BME280;61365;52.162;4.500;2023-09-07T07:36:03;101943.38;;;25.30;54.37
72685;BME280;61365;52.162;4.500;2023-09-07T07:38:30;101945.06;;;25.12;55.32
72685;BME280;61365;52.162;4.500;2023-09-07T07:40:56;101943.88;;;25.38;54.13
72685;BME280;61365;52.162;4.500;2023-09-07T07:43:22;101942.31;;;25.53;54.42
72685;BME280;61365;52.162;4.500;2023-09-07T07:45:48;101941.66;;;25.08;54.97
72685;BME280;61365;52.162;4.500;2023-09-07T07:48:14;101944.00;;;25.35;55.26
72685;BME280;61365;52.162;4.500;2023-09-07T07:50:40;101931.81;;;25.28;55.53
72685;BME280;61365;52.162;4.500;2023-09-07T07:53:07;101937.47;;;25.81;53.64
72685;BME280;61365;52.162;4.500;2023-09-07T07:55:36;101928.72;;;25.95;54.07
72685;BME280;61365;52.162;4.500;2023-09-07T07:58:06;101919.34;;;25.65;55.00
72685;BME280;61365;52.162;4.500;2023-09-07T08:00:34;101917.56;;;25.66;53.67
72685;BME280;61365;52.162;4.500;2023-09-07T08:03:04;101917.03;;;25.96;53.06
72685;BME280;61365;52.162;4.500;2023-09-07T08:05:34;101920.13;;;26.05;52.76
72685;BME280;61365;52.162;4.500;2023-09-07T08:08:01;101920.81;;;25.91;52.39
72685;BME280;61365;52.162;4.500;2023-09-07T08:10:27;101913.47;;;25.76;53.23
72685;BME280;61365;52.162;4.500;2023-09-07T08:12:54;101916.50;;;26.06;52.33
72685;BME280;61365;52.162;4.500;2023-09-07T08:15:21;101918.72;;;26.16;52.21
72685;BME280;61365;52.162;4.500;2023-09-07T08:17:48;101926.00;;;26.14;51.78
72685;BME280;61365;52.162;4.500;2023-09-07T08:20:14;101927.16;;;26.27;52.03
72685;BME280;61365;52.162;4.500;2023-09-07T08:22:41;101927.09;;;26.64;50.76
72685;BME280;61365;52.162;4.500;2023-09-07T08:25:08;101921.28;;;26.72;49.74
72685;BME280;61365;52.162;4.500;2023-09-07T08:27:34;101920.44;;;26.71;50.71
72685;BME280;61365;52.162;4.500;2023-09-07T08:30:01;101920.81;;;26.63;50.73
72685;BME280;61365;52.162;4.500;2023-09-07T08:32:27;101911.06;;;26.78;50.93
72685;BME280;61365;52.162;4.500;2023-09-07T08:34:55;101914.09;;;26.55;51.95
72685;BME280;61365;52.162;4.500;2023-09-07T08:37:25;101894.78;;;27.15;50.66
72685;BME280;61365;52.162;4.500;2023-09-07T08:39:53;101893.78;;;27.00;50.88
72685;BME280;61365;52.162;4.500;2023-09-07T08:42:21;101901.47;;;27.08;50.33
72685;BME280;61365;52.162;4.500;2023-09-07T08:44:47;101900.53;;;27.09;50.83
72685;BME280;61365;52.162;4.500;2023-09-07T08:47:17;101902.50;;;27.55;48.86
72685;BME280;61365;52.162;4.500;2023-09-07T08:49:44;101885.91;;;26.97;50.50
72685;BME280;61365;52.162;4.500;2023-09-07T08:52:11;101893.97;;;27.63;49.76
72685;BME280;61365;52.162;4.500;2023-09-07T08:54:41;101908.41;;;27.46;48.89
72685;BME280;61365;52.162;4.500;2023-09-07T08:57:09;101901.50;;;26.90;51.73
72685;BME280;61365;52.162;4.500;2023-09-07T08:59:36;101894.63;;;27.34;51.37
72685;BME280;61365;52.162;4.500;2023-09-07T09:02:02;101900.91;;;27.01;52.10
72685;BME280;61365;52.162;4.500;2023-09-07T09:04:34;101894.00;;;27.13;50.96
72685;BME280;61365;52.162;4.500;2023-09-07T09:07:01;101895.94;;;27.27;50.84
72685;BME280;61365;52.162;4.500;2023-09-07T09:09:29;101888.50;;;26.98;51.34
72685;BME280;61365;52.162;4.500;2023-09-07T09:12:09;101882.00;;;27.52;50.44
72685;BME280;61365;52.162;4.500;2023-09-07T09:14:35;101881.50;;;27.62;48.78
72685;BME280;61365;52.162;4.500;2023-09-07T09:17:02;101894.63;;;27.34;49.07
72685;BME280;61365;52.162;4.500;2023-09-07T09:19:31;101892.31;;;27.44;49.08
72685;BME280;61365;52.162;4.500;2023-09-07T09:21:58;101895.66;;;27.16;50.46
72685;BME280;61365;52.162;4.500;2023-09-07T09:24:25;101885.91;;;27.47;48.57
72685;BME280;61365;52.162;4.500;2023-09-07T09:26:51;101880.97;;;27.21;49.15
72685;BME280;61365;52.162;4.500;2023-09-07T09:29:21;101879.13;;;27.55;49.69
72685;BME280;61365;52.162;4.500;2023-09-07T09:31:48;101885.16;;;28.07;49.61
72685;BME280;61365;52.162;4.500;2023-09-07T09:34:17;101893.34;;;27.90;48.16
72685;BME280;61365;52.162;4.500;2023-09-07T09:36:44;101891.97;;;27.98;48.29
72685;BME280;61365;52.162;4.500;2023-09-07T09:39:10;101898.22;;;27.99;48.05
72685;BME280;61365;52.162;4.500;2023-09-07T09:41:46;101892.41;;;27.91;48.27
72685;BME280;61365;52.162;4.500;2023-09-07T09:44:13;101886.31;;;27.87;48.22
72685;BME280;61365;52.162;4.500;2023-09-07T09:46:41;101888.75;;;27.76;49.50
72685;BME280;61365;52.162;4.500;2023-09-07T09:49:09;101895.78;;;28.10;49.09
72685;BME280;61365;52.162;4.500;2023-09-07T09:51:38;101891.69;;;28.03;48.55
72685;BME280;61365;52.162;4.500;2023-09-07T09:54:05;101892.47;;;28.52;46.84
72685;BME280;61365;52.162;4.500;2023-09-07T09:56:32;101895.72;;;28.12;47.47
72685;BME280;61365;52.162;4.500;2023-09-07T09:58:58;101886.63;;;28.29;46.01
72685;BME280;61365;52.162;4.500;2023-09-07T10:01:24;101884.41;;;27.89;47.46
72685;BME280;61365;52.162;4.500;2023-09-07T10:03:50;101884.34;;;28.37;46.41
72685;BME280;61365;52.162;4.500;2023-09-07T10:06:25;101879.63;;;28.41;47.31
72685;BME280;61365;52.162;4.500;2023-09-07T10:08:58;101884.78;;;28.29;46.67
72685;BME280;61365;52.162;4.500;2023-09-07T10:11:31;101887.56;;;28.28;45.76
72685;BME280;61365;52.162;4.500;2023-09-07T10:13:59;101883.44;;;28.22;45.90
72685;BME280;61365;52.162;4.500;2023-09-07T10:16:40;101876.75;;;27.97;48.03
72685;BME280;61365;52.162;4.500;2023-09-07T10:19:19;101883.44;;;28.22;46.48
72685;BME280;61365;52.162;4.500;2023-09-07T10:21:46;101888.03;;;28.20;46.19
72685;BME280;61365;52.162;4.500;2023-09-07T10:24:26;101878.22;;;28.19;47.28
72685;BME280;61365;52.162;4.500;2023-09-07T10:27:07;101867.41;;;28.19;45.57
72685;BME280;61365;52.162;4.500;2023-09-07T10:29:43;101868.22;;;27.89;46.48
72685;BME280;61365;52.162;4.500;2023-09-07T10:32:15;101864.97;;;28.14;45.88
72685;BME280;61365;52.162;4.500;2023-09-07T10:34:42;101875.78;;;27.98;45.92
72685;BME280;61365;52.162;4.500;2023-09-07T10:37:11;101876.28;;;28.05;45.69
72685;BME280;61365;52.162;4.500;2023-09-07T10:39:40;101864.16;;;28.28;45.45
72685;BME280;61365;52.162;4.500;2023-09-07T10:42:20;101874.22;;;28.55;45.37
72685;BME280;61365;52.162;4.500;2023-09-07T10:44:50;101872.88;;;28.17;47.50
72685;BME280;61365;52.162;4.500;2023-09-07T10:47:16;101862.22;;;28.30;46.76
72685;BME280;61365;52.162;4.500;2023-09-07T10:49:42;101873.09;;;28.59;45.25
72685;BME280;61365;52.162;4.500;2023-09-07T10:52:09;101867.69;;;28.59;45.29
72685;BME280;61365;52.162;4.500;2023-09-07T10:54:35;101865.16;;;28.56;44.21
72685;BME280;61365;52.162;4.500;2023-09-07T10:57:08;101869.53;;;28.73;44.24
72685;BME280;61365;52.162;4.500;2023-09-07T10:59:35;101860.16;;;28.65;45.14
72685;BME280;61365;52.162;4.500;2023-09-07T11:02:05;101863.41;;;28.86;45.48
72685;BME280;61365;52.162;4.500;2023-09-07T11:04:31;101855.75;;;28.78;44.12
72685;BME280;61365;52.162;4.500;2023-09-07T11:06:58;101863.25;;;28.58;44.46
72685;BME280;61365;52.162;4.500;2023-09-07T11:09:24;101852.75;;;28.68;46.23
72685;BME280;61365;52.162;4.500;2023-09-07T11:11:50;101859.69;;;28.72;45.24
72685;BME280;61365;52.162;4.500;2023-09-07T11:14:17;101859.78;;;28.56;44.75
72685;BME280;61365;52.162;4.500;2023-09-07T11:16:47;101848.31;;;28.67;44.45
72685;BME280;61365;52.162;4.500;2023-09-07T11:19:13;101841.28;;;28.79;44.69
72685;BME280;61365;52.162;4.500;2023-09-07T11:21:41;101831.84;;;28.86;44.68
72685;BME280;61365;52.162;4.500;2023-09-07T11:24:08;101825.38;;;29.03;43.86
72685;BME280;61365;52.162;4.500;2023-09-07T11:26:41;101826.41;;;29.15;43.55
72685;BME280;61365;52.162;4.500;2023-09-07T11:29:14;101825.47;;;28.73;43.20
72685;BME280;61365;52.162;4.500;2023-09-07T11:31:41;101815.03;;;28.67;44.81
72685;BME280;61365;52.162;4.500;2023-09-07T11:34:08;101806.75;;;28.70;43.10
72685;BME280;61365;52.162;4.500;2023-09-07T11:36:36;101806.69;;;28.86;43.36
72685;BME280;61365;52.162;4.500;2023-09-07T11:39:02;101806.47;;;28.89;40.78
72685;BME280;61365;52.162;4.500;2023-09-07T11:41:39;101810.78;;;28.62;41.54
72685;BME280;61365;52.162;4.500;2023-09-07T11:44:07;101802.09;;;28.57;42.28
72685;BME280;61365;52.162;4.500;2023-09-07T11:46:34;101800.66;;;28.52;43.42
72685;BME280;61365;52.162;4.500;2023-09-07T11:49:00;101807.53;;;28.86;42.53
72685;BME280;61365;52.162;4.500;2023-09-07T11:51:26;101808.09;;;28.62;42.50
72685;BME280;61365;52.162;4.500;2023-09-07T11:53:52;101813.50;;;28.77;42.20
72685;BME280;61365;52.162;4.500;2023-09-07T11:56:18;101815.56;;;28.88;41.58
72685;BME280;61365;52.162;4.500;2023-09-07T11:58:45;101805.91;;;28.84;41.41
72685;BME280;61365;52.162;4.500;2023-09-07T12:01:11;101808.19;;;28.61;42.60
72685;BME280;61365;52.162;4.500;2023-09-07T12:03:37;101803.75;;;28.89;41.59
72685;BME280;61365;52.162;4.500;2023-09-07T12:06:03;101796.94;;;28.83;39.70
72685;BME280;61365;52.162;4.500;2023-09-07T12:08:29;101792.50;;;28.82;39.06
72685;BME280;61365;52.162;4.500;2023-09-07T12:10:55;101801.44;;;29.12;38.14
72685;BME280;61365;52.162;4.500;2023-09-07T12:13:21;101791.28;;;29.01;38.56
72685;BME280;61365;52.162;4.500;2023-09-07T12:15:47;101793.44;;;28.81;38.92
72685;BME280;61365;52.162;4.500;2023-09-07T12:18:13;101782.84;;;28.92;38.85
72685;BME280;61365;52.162;4.500;2023-09-07T12:20:40;101794.00;;;29.01;38.96
72685;BME280;61365;52.162;4.500;2023-09-07T12:23:06;101777.38;;;29.21;38.80
72685;BME280;61365;52.162;4.500;2023-09-07T12:25:32;101772.88;;;29.08;39.66
72685;BME280;61365;52.162;4.500;2023-09-07T12:27:58;101782.41;;;29.13;39.42
72685;BME280;61365;52.162;4.500;2023-09-07T12:30:24;101775.88;;;29.45;38.08
72685;BME280;61365;52.162;4.500;2023-09-07T12:32:51;101782.22;;;29.16;38.58
72685;BME280;61365;52.162;4.500;2023-09-07T12:35:17;101778.25;;;29.22;38.01
72685;BME280;61365;52.162;4.500;2023-09-07T12:37:43;101780.78;;;29.11;38.08
72685;BME280;61365;52.162;4.500;2023-09-07T12:40:10;101788.47;;;29.17;37.11
72685;BME280;61365;52.162;4.500;2023-09-07T12:42:39;101780.09;;;29.07;37.19
72685;BME280;61365;52.162;4.500;2023-09-07T12:45:09;101774.81;;;29.05;37.53
72685;BME280;61365;52.162;4.500;2023-09-07T12:47:42;101781.25;;;29.17;37.11
72685;BME280;61365;52.162;4.500;2023-09-07T12:50:08;101774.50;;;29.10;36.81